createdAt,value
2018-09-21T00:00:02.883Z,99660.67
2018-09-21T00:00:40.829Z,99666.47
2018-09-21T00:01:16.054Z,99671.52
2018-09-21T00:01:51.281Z,99666.52
2018-09-21T00:02:26.031Z,99666.28
2018-09-21T00:03:01.227Z,99663.30
2018-09-21T00:03:36.564Z,99661.31
2018-09-21T00:04:12.918Z,99666.77
2018-09-21T00:04:48.107Z,99664.07
2018-09-21T00:05:23.324Z,99670.62
2018-09-21T00:05:58.497Z,99662.44
2018-09-21T00:06:33.702Z,99661.86
2018-09-21T00:07:08.890Z,99665.80
2018-09-21T00:07:44.097Z,99667.41
2018-09-21T00:08:19.312Z,99664.20
2018-09-21T00:08:54.879Z,99665.28
2018-09-21T00:09:30.054Z,99665.09
2018-09-21T00:10:06.059Z,99659.61
2018-09-21T00:10:41.226Z,99668.07
2018-09-21T00:11:16.449Z,99669.51
2018-09-21T00:11:51.690Z,99668.80
2018-09-21T00:12:26.389Z,99663.60
2018-09-21T00:13:01.610Z,99665.11
2018-09-21T00:13:38.105Z,99665.27
2018-09-21T00:14:13.274Z,99664.16
2018-09-21T00:14:48.504Z,99668.20
2018-09-21T00:15:23.729Z,99659.61
2018-09-21T00:15:58.903Z,99665.95
2018-09-21T00:16:34.055Z,99663.13
2018-09-21T00:17:09.217Z,99664.08
2018-09-21T00:17:44.398Z,99659.25
2018-09-21T00:18:19.656Z,99659.52
2018-09-21T00:18:54.877Z,99659.81
2018-09-21T00:19:30.019Z,99658.53
2018-09-21T00:20:05.244Z,99660.19
2018-09-21T00:20:40.401Z,99655.54
2018-09-21T00:21:15.774Z,99659.70
2018-09-21T00:21:50.851Z,99648.32
2018-09-21T00:22:26.258Z,99654.28
2018-09-21T00:23:01.414Z,99654.00
2018-09-21T00:23:36.637Z,99656.55
2018-09-21T00:24:11.816Z,99655.19
2018-09-21T00:24:47.048Z,99651.37
2018-09-21T00:25:22.304Z,99655.41
2018-09-21T00:25:57.495Z,99653.88
2018-09-21T00:26:32.682Z,99648.72
2018-09-21T00:27:07.374Z,99647.28
2018-09-21T00:27:42.539Z,99644.84
2018-09-21T00:28:17.770Z,99643.66
2018-09-21T00:28:53.023Z,99648.01
2018-09-21T00:29:28.208Z,99640.67
2018-09-21T00:30:03.959Z,99641.56
2018-09-21T00:30:39.138Z,99640.32
2018-09-21T00:31:14.344Z,99641.92
2018-09-21T00:31:49.577Z,99647.23
2018-09-21T00:32:24.797Z,99643.45
2018-09-21T00:32:59.514Z,99641.40
2018-09-21T00:33:35.038Z,99646.88
2018-09-21T00:34:10.280Z,99641.47
2018-09-21T00:34:45.467Z,99642.36
2018-09-21T00:35:20.678Z,99636.27
2018-09-21T00:35:55.874Z,99634.95
2018-09-21T00:36:31.066Z,99632.43
2018-09-21T00:37:06.487Z,99635.44
2018-09-21T00:37:42.534Z,99632.03
2018-09-21T00:38:17.899Z,99628.80
2018-09-21T00:38:53.158Z,99636.85
2018-09-21T00:39:28.324Z,99631.30
2018-09-21T00:40:03.532Z,99630.72
2018-09-21T00:40:38.720Z,99629.18
2018-09-21T00:41:13.861Z,99629.28
2018-09-21T00:41:49.105Z,99628.49
2018-09-21T00:42:24.286Z,99630.79
2018-09-21T00:42:59.474Z,99629.80
2018-09-21T00:43:34.670Z,99625.89
2018-09-21T00:44:09.855Z,99627.48
2018-09-21T00:44:45.045Z,99630.24
2018-09-21T00:45:20.261Z,99621.58
2018-09-21T00:45:55.406Z,99628.72
2018-09-21T00:46:30.589Z,99625.74
2018-09-21T00:47:06.659Z,99624.71
2018-09-21T00:47:41.819Z,99627.11
2018-09-21T00:48:16.996Z,99622.89
2018-09-21T00:48:52.232Z,99629.80
2018-09-21T00:49:27.654Z,99625.27
2018-09-21T00:50:02.839Z,99629.80
2018-09-21T00:50:38.246Z,99621.45
2018-09-21T00:51:13.647Z,99626.07
2018-09-21T00:51:48.864Z,99621.52
2018-09-21T00:52:24.515Z,99622.98
2018-09-21T00:52:59.686Z,99625.23
2018-09-21T00:53:34.883Z,99628.84
2018-09-21T00:54:10.088Z,99622.28
2018-09-21T00:54:45.313Z,99628.14
2018-09-21T00:55:20.533Z,99622.81
2018-09-21T00:55:55.836Z,99612.84
2018-09-21T00:56:30.999Z,99623.58
2018-09-21T00:57:05.667Z,99623.09
2018-09-21T00:57:40.955Z,99618.22
2018-09-21T00:58:16.231Z,99616.81
2018-09-21T00:58:51.425Z,99618.30
2018-09-21T00:59:26.631Z,99611.50
2018-09-21T01:00:01.799Z,99617.11
2018-09-21T01:00:36.990Z,99616.14
2018-09-21T01:01:12.221Z,99616.50
2018-09-21T01:01:47.408Z,99613.52
2018-09-21T01:02:22.626Z,99616.85
2018-09-21T01:02:57.832Z,99615.56
2018-09-21T01:03:33.022Z,99614.35
2018-09-21T01:04:08.219Z,99612.91
2018-09-21T01:04:44.466Z,99617.64
2018-09-21T01:05:19.744Z,99620.09
2018-09-21T01:05:54.997Z,99618.64
2018-09-21T01:06:30.182Z,99617.00
2018-09-21T01:07:05.742Z,99617.52
2018-09-21T01:07:40.932Z,99616.00
2018-09-21T01:08:16.394Z,99618.45
2018-09-21T01:08:51.766Z,99617.97
2018-09-21T01:09:27.035Z,99619.46
2018-09-21T01:10:02.219Z,99618.39
2018-09-21T01:10:37.429Z,99617.73
2018-09-21T01:11:13.111Z,99619.79
2018-09-21T01:11:48.443Z,99614.75
2018-09-21T01:12:23.841Z,99616.22
2018-09-21T01:12:59.230Z,99612.59
2018-09-21T01:13:34.439Z,99612.73
2018-09-21T01:14:09.707Z,99618.06
2018-09-21T01:14:44.909Z,99616.34
2018-09-21T01:15:20.886Z,99613.52
2018-09-21T01:15:56.192Z,99617.46
2018-09-21T01:16:31.374Z,99614.88
2018-09-21T01:17:07.241Z,99609.12
2018-09-21T01:17:42.740Z,99617.59
2018-09-21T01:18:18.093Z,99606.10
2018-09-21T01:18:53.358Z,99608.95
2018-09-21T01:19:28.722Z,99609.76
2018-09-21T01:20:04.280Z,99614.88
2018-09-21T01:20:39.481Z,99608.93
2018-09-21T01:21:14.704Z,99612.03
2018-09-21T01:21:49.471Z,99608.31
2018-09-21T01:22:24.964Z,99603.90
2018-09-21T01:23:00.182Z,99600.62
2018-09-21T01:23:35.355Z,99607.23
2018-09-21T01:24:10.563Z,99602.59
2018-09-21T01:24:46.242Z,99608.60
2018-09-21T01:25:21.939Z,99610.22
2018-09-21T01:25:57.184Z,99603.95
2018-09-21T01:26:32.407Z,99606.88
2018-09-21T01:27:07.666Z,99609.20
2018-09-21T01:27:43.225Z,99606.48
2018-09-21T01:28:18.516Z,99601.88
2018-09-21T01:28:54.317Z,99602.52
2018-09-21T01:29:29.595Z,99603.67
2018-09-21T01:30:05.377Z,99608.62
2018-09-21T01:30:40.644Z,99603.25
2018-09-21T01:31:15.883Z,99600.20
2018-09-21T01:31:51.197Z,99607.72
2018-09-21T01:32:26.491Z,99605.04
2018-09-21T01:33:01.724Z,99602.88
2018-09-21T01:33:36.897Z,99606.93
2018-09-21T01:34:12.118Z,99599.73
2018-09-21T01:34:47.319Z,99600.54
2018-09-21T01:35:22.674Z,99601.20
2018-09-21T01:35:57.916Z,99601.09
2018-09-21T01:36:33.127Z,99601.86
2018-09-21T01:37:08.794Z,99600.98
2018-09-21T01:37:43.951Z,99599.31
2018-09-21T01:38:19.289Z,99601.23
2018-09-21T01:38:54.973Z,99598.28
2018-09-21T01:39:30.198Z,99595.31
2018-09-21T01:40:05.394Z,99594.16
2018-09-21T01:40:40.578Z,99590.22
2018-09-21T01:41:15.882Z,99589.87
2018-09-21T01:41:51.152Z,99591.13
2018-09-21T01:42:26.461Z,99588.38
2018-09-21T01:43:01.654Z,99588.91
2018-09-21T01:43:36.844Z,99587.72
2018-09-21T01:44:12.030Z,99585.53
2018-09-21T01:44:47.286Z,99582.83
2018-09-21T01:45:22.652Z,99581.64
2018-09-21T01:45:57.962Z,99584.63
2018-09-21T01:46:33.344Z,99579.62
2018-09-21T01:47:08.570Z,99579.14
2018-09-21T01:47:43.761Z,99584.03
2018-09-21T01:48:19.027Z,99583.78
2018-09-21T01:48:54.478Z,99584.52
2018-09-21T01:49:29.996Z,99579.97
2018-09-21T01:50:05.664Z,99578.53
2018-09-21T01:50:40.850Z,99581.52
2018-09-21T01:51:17.073Z,99583.18
2018-09-21T01:51:52.346Z,99579.14
2018-09-21T01:52:27.154Z,99571.62
2018-09-21T01:53:02.430Z,99576.16
2018-09-21T01:53:37.600Z,99582.00
2018-09-21T01:54:12.790Z,99575.02
2018-09-21T01:54:48.116Z,99575.73
2018-09-21T01:55:23.576Z,99574.19
2018-09-21T01:55:59.024Z,99571.31
2018-09-21T01:56:34.185Z,99573.33
2018-09-21T01:57:09.497Z,99570.30
2018-09-21T01:57:44.720Z,99572.63
2018-09-21T01:58:20.204Z,99571.69
2018-09-21T01:58:55.465Z,99570.86
2018-09-21T01:59:30.613Z,99571.02
2018-09-21T02:00:05.939Z,99569.42
2018-09-21T02:00:41.103Z,99566.23
2018-09-21T02:01:16.363Z,99567.55
2018-09-21T02:01:51.604Z,99570.18
2018-09-21T02:02:26.912Z,99565.60
2018-09-21T02:03:02.109Z,99566.44
2018-09-21T02:03:36.786Z,99565.62
2018-09-21T02:04:12.082Z,99570.55
2018-09-21T02:04:47.283Z,99567.14
2018-09-21T02:05:22.485Z,99569.77
2018-09-21T02:05:57.797Z,99563.15
2018-09-21T02:06:32.999Z,99565.30
2018-09-21T02:07:10.182Z,99565.70
2018-09-21T02:07:45.358Z,99555.55
2018-09-21T02:08:20.789Z,99562.34
2018-09-21T02:08:56.181Z,99560.75
2018-09-21T02:09:31.420Z,99559.97
2018-09-21T02:10:06.894Z,99555.08
2018-09-21T02:10:42.054Z,99563.56
2018-09-21T02:11:17.309Z,99562.34
2018-09-21T02:11:52.730Z,99555.98
2018-09-21T02:12:28.035Z,99552.52
2018-09-21T02:13:03.236Z,99551.48
2018-09-21T02:13:38.512Z,99551.84
2018-09-21T02:14:13.688Z,99554.98
2018-09-21T02:14:48.954Z,99557.29
2018-09-21T02:15:24.297Z,99551.20
2018-09-21T02:15:59.681Z,99550.56
2018-09-21T02:16:34.857Z,99549.30
2018-09-21T02:17:10.372Z,99553.84
2018-09-21T02:17:45.704Z,99550.38
2018-09-21T02:18:21.345Z,99554.91
2018-09-21T02:18:56.942Z,99553.72
2018-09-21T02:19:32.309Z,99556.57
2018-09-21T02:20:07.565Z,99559.31
2018-09-21T02:20:42.753Z,99553.18
2018-09-21T02:21:18.556Z,99555.52
2018-09-21T02:21:53.719Z,99546.97
2018-09-21T02:22:29.222Z,99550.08
2018-09-21T02:23:04.426Z,99545.36
2018-09-21T02:23:39.707Z,99543.99
2018-09-21T02:24:14.891Z,99540.11
2018-09-21T02:24:50.234Z,99549.42
2018-09-21T02:25:25.591Z,99541.02
2018-09-21T02:26:00.788Z,99542.16
2018-09-21T02:26:36.012Z,99545.23
2018-09-21T02:27:11.208Z,99542.03
2018-09-21T02:27:45.940Z,99537.67
2018-09-21T02:28:21.348Z,99541.38
2018-09-21T02:28:56.612Z,99543.52
2018-09-21T02:29:31.828Z,99543.63
2018-09-21T02:30:07.073Z,99538.75
2018-09-21T02:30:42.235Z,99539.23
2018-09-21T02:31:17.474Z,99541.00
2018-09-21T02:31:52.726Z,99539.20
2018-09-21T02:32:28.113Z,99536.25
2018-09-21T02:33:03.304Z,99540.36
2018-09-21T02:33:38.463Z,99530.22
2018-09-21T02:34:13.661Z,99534.16
2018-09-21T02:34:49.138Z,99533.45
2018-09-21T02:35:24.468Z,99533.25
2018-09-21T02:35:59.706Z,99528.00
2018-09-21T02:36:34.907Z,99528.96
2018-09-21T02:37:10.128Z,99529.09
2018-09-21T02:37:45.352Z,99522.45
2018-09-21T02:38:20.780Z,99525.20
2018-09-21T02:38:56.219Z,99529.52
2018-09-21T02:39:31.454Z,99521.52
2018-09-21T02:40:07.748Z,99525.94
2018-09-21T02:40:42.976Z,99527.55
2018-09-21T02:41:18.260Z,99524.12
2018-09-21T02:41:53.882Z,99519.65
2018-09-21T02:42:29.144Z,99519.52
2018-09-21T02:43:04.299Z,99519.63
2018-09-21T02:43:39.441Z,99521.42
2018-09-21T02:44:14.642Z,99510.81
2018-09-21T02:44:49.989Z,99516.91
2018-09-21T02:45:25.456Z,99512.90
2018-09-21T02:46:00.670Z,99510.20
2018-09-21T02:46:36.260Z,99511.78
2018-09-21T02:47:11.464Z,99511.71
2018-09-21T02:47:46.683Z,99508.51
2018-09-21T02:48:22.005Z,99508.73
2018-09-21T02:48:57.612Z,99515.78
2018-09-21T02:49:32.818Z,99503.61
2018-09-21T02:50:08.035Z,99509.44
2018-09-21T02:50:43.305Z,99506.46
2018-09-21T02:51:18.763Z,99507.45
2018-09-21T02:51:54.232Z,99504.83
2018-09-21T02:52:29.852Z,99507.02
2018-09-21T02:53:05.046Z,99502.91
2018-09-21T02:53:40.252Z,99499.48
2018-09-21T02:54:15.471Z,99502.75
2018-09-21T02:54:51.075Z,99501.44
2018-09-21T02:55:26.470Z,99503.64
2018-09-21T02:56:01.656Z,99506.14
2018-09-21T02:56:37.334Z,99504.73
2018-09-21T02:57:12.507Z,99504.35
2018-09-21T02:57:47.788Z,99505.70
2018-09-21T02:58:23.025Z,99507.39
2018-09-21T02:58:58.609Z,99502.56
2018-09-21T02:59:33.800Z,99504.06
2018-09-21T03:00:10.040Z,99510.85
2018-09-21T03:00:45.629Z,99507.34
2018-09-21T03:01:20.936Z,99505.05
2018-09-21T03:01:56.158Z,99507.63
2018-09-21T03:02:31.365Z,99506.48
2018-09-21T03:03:06.196Z,99508.05
2018-09-21T03:03:41.363Z,99504.81
2018-09-21T03:04:16.634Z,99504.33
2018-09-21T03:04:53.502Z,99505.29
2018-09-21T03:05:28.701Z,99510.56
2018-09-21T03:06:04.310Z,99505.92
2018-09-21T03:06:39.663Z,99507.23
2018-09-21T03:07:15.007Z,99506.69
2018-09-21T03:07:50.239Z,99498.11
2018-09-21T03:08:25.510Z,99501.22
2018-09-21T03:09:00.682Z,99498.11
2018-09-21T03:09:35.869Z,99502.66
2018-09-21T03:10:11.063Z,99498.59
2018-09-21T03:10:46.276Z,99493.82
2018-09-21T03:11:21.520Z,99493.47
2018-09-21T03:11:56.710Z,99489.80
2018-09-21T03:12:31.898Z,99491.81
2018-09-21T03:13:07.444Z,99493.34
2018-09-21T03:13:42.842Z,99489.40
2018-09-21T03:14:18.271Z,99487.73
2018-09-21T03:14:53.655Z,99487.73
2018-09-21T03:15:29.387Z,99488.92
2018-09-21T03:16:04.600Z,99487.25
2018-09-21T03:16:39.755Z,99488.83
2018-09-21T03:17:15.485Z,99485.02
2018-09-21T03:17:50.742Z,99480.33
2018-09-21T03:18:26.220Z,99485.29
2018-09-21T03:19:01.490Z,99480.03
2018-09-21T03:19:36.664Z,99487.61
2018-09-21T03:20:11.848Z,99483.66
2018-09-21T03:20:47.610Z,99485.59
2018-09-21T03:21:23.388Z,99477.27
2018-09-21T03:21:58.623Z,99475.55
2018-09-21T03:22:33.846Z,99475.91
2018-09-21T03:23:09.021Z,99479.77
2018-09-21T03:23:44.211Z,99475.82
2018-09-21T03:24:19.511Z,99473.41
2018-09-21T03:24:54.779Z,99473.67
2018-09-21T03:25:30.033Z,99472.71
2018-09-21T03:26:05.399Z,99469.86
2018-09-21T03:26:40.616Z,99476.17
2018-09-21T03:27:15.478Z,99472.84
2018-09-21T03:27:50.811Z,99474.91
2018-09-21T03:28:26.106Z,99472.14
2018-09-21T03:29:01.371Z,99472.23
2018-09-21T03:29:36.554Z,99473.11
2018-09-21T03:30:12.032Z,99472.76
2018-09-21T03:30:47.266Z,99471.31
2018-09-21T03:31:23.097Z,99467.19
2018-09-21T03:31:57.897Z,99472.63
2018-09-21T03:32:33.089Z,99472.58
2018-09-21T03:33:08.532Z,99473.11
2018-09-21T03:33:43.717Z,99478.23
2018-09-21T03:34:18.946Z,99470.30
2018-09-21T03:34:54.231Z,99466.05
2018-09-21T03:35:29.526Z,99471.95
2018-09-21T03:36:04.234Z,99464.25
2018-09-21T03:36:39.499Z,99471.31
2018-09-21T03:37:14.691Z,99465.16
2018-09-21T03:37:50.021Z,99467.39
2018-09-21T03:38:25.688Z,99466.77
2018-09-21T03:39:01.251Z,99467.80
2018-09-21T03:39:36.465Z,99472.36
2018-09-21T03:40:11.797Z,99465.87
2018-09-21T03:40:46.987Z,99470.69
2018-09-21T03:41:22.379Z,99467.66
2018-09-21T03:41:57.634Z,99466.27
2018-09-21T03:42:32.914Z,99458.52
2018-09-21T03:43:08.978Z,99465.08
2018-09-21T03:43:44.201Z,99463.07
2018-09-21T03:44:19.813Z,99462.80
2018-09-21T03:44:55.108Z,99462.24
2018-09-21T03:45:30.480Z,99463.16
2018-09-21T03:46:05.851Z,99465.83
2018-09-21T03:46:41.070Z,99465.91
2018-09-21T03:47:16.266Z,99460.44
2018-09-21T03:47:51.503Z,99465.70
2018-09-21T03:48:27.045Z,99459.48
2018-09-21T03:49:02.234Z,99458.47
2018-09-21T03:49:37.430Z,99465.66
2018-09-21T03:50:12.750Z,99462.94
2018-09-21T03:50:48.032Z,99461.36
2018-09-21T03:51:23.438Z,99461.09
2018-09-21T03:51:59.096Z,99460.39
2018-09-21T03:52:34.289Z,99456.94
2018-09-21T03:53:09.487Z,99459.22
2018-09-21T03:53:44.777Z,99466.00
2018-09-21T03:54:20.024Z,99455.00
2018-09-21T03:54:55.566Z,99452.77
2018-09-21T03:55:30.786Z,99440.80
2018-09-21T03:56:05.929Z,99444.53
2018-09-21T03:56:41.102Z,99445.15
2018-09-21T03:57:16.343Z,99443.30
2018-09-21T03:57:51.679Z,99440.23
2018-09-21T03:58:26.983Z,99447.95
2018-09-21T03:59:02.180Z,99449.53
2018-09-21T03:59:37.370Z,99450.80
2018-09-21T04:00:12.543Z,99454.66
2018-09-21T04:00:47.797Z,99450.23
2018-09-21T04:01:23.068Z,99449.09
2018-09-21T04:01:58.329Z,99443.03
2018-09-21T04:02:33.476Z,99435.90
2018-09-21T04:03:08.661Z,99450.63
2018-09-21T04:03:43.840Z,99444.63
2018-09-21T04:04:19.272Z,99446.69
2018-09-21T04:04:54.668Z,99449.39
2018-09-21T04:05:29.904Z,99444.27
2018-09-21T04:06:05.486Z,99440.33
2018-09-21T04:06:40.783Z,99440.67
2018-09-21T04:07:16.004Z,99438.30
2018-09-21T04:07:51.488Z,99438.09
2018-09-21T04:08:26.981Z,99432.09
2018-09-21T04:09:02.222Z,99428.72
2018-09-21T04:09:37.403Z,99438.13
2018-09-21T04:10:12.612Z,99432.66
2018-09-21T04:10:47.852Z,99423.02
2018-09-21T04:11:23.123Z,99425.64
2018-09-21T04:11:58.413Z,99428.58
2018-09-21T04:12:33.594Z,99423.70
2018-09-21T04:13:08.762Z,99421.44
2018-09-21T04:13:43.927Z,99422.48
2018-09-21T04:14:19.750Z,99421.83
2018-09-21T04:14:55.108Z,99423.36
2018-09-21T04:15:30.439Z,99422.53
2018-09-21T04:16:05.991Z,99419.28
2018-09-21T04:16:41.325Z,99419.77
2018-09-21T04:17:16.499Z,99415.27
2018-09-21T04:17:51.714Z,99417.66
2018-09-21T04:18:27.120Z,99412.70
2018-09-21T04:19:02.291Z,99414.91
2018-09-21T04:19:37.687Z,99420.03
2018-09-21T04:20:13.020Z,99412.49
2018-09-21T04:20:48.742Z,99418.58
2018-09-21T04:21:24.076Z,99412.75
2018-09-21T04:21:59.313Z,99412.75
2018-09-21T04:22:34.663Z,99409.24
2018-09-21T04:23:09.900Z,99409.63
2018-09-21T04:23:45.210Z,99407.14
2018-09-21T04:24:20.594Z,99404.13
2018-09-21T04:24:55.916Z,99411.48
2018-09-21T04:25:31.799Z,99404.73
2018-09-21T04:26:07.420Z,99404.81
2018-09-21T04:26:42.143Z,99408.28
2018-09-21T04:27:16.864Z,99410.89
2018-09-21T04:27:52.404Z,99410.75
2018-09-21T04:28:27.794Z,99408.56
2018-09-21T04:29:03.378Z,99404.83
2018-09-21T04:29:38.543Z,99411.72
2018-09-21T04:30:13.694Z,99399.02
2018-09-21T04:30:48.931Z,99400.54
2018-09-21T04:31:24.255Z,99393.62
2018-09-21T04:31:59.511Z,99397.46
2018-09-21T04:32:34.759Z,99394.93
2018-09-21T04:33:10.299Z,99395.47
2018-09-21T04:33:45.805Z,99393.99
2018-09-21T04:34:21.242Z,99400.67
2018-09-21T04:34:56.842Z,99399.22
2018-09-21T04:35:32.061Z,99401.50
2018-09-21T04:36:07.734Z,99399.22
2018-09-21T04:36:43.099Z,99399.61
2018-09-21T04:37:18.493Z,99396.05
2018-09-21T04:37:53.883Z,99402.45
2018-09-21T04:38:29.118Z,99402.45
2018-09-21T04:39:06.559Z,99394.25
2018-09-21T04:39:41.784Z,99401.25
2018-09-21T04:40:17.692Z,99393.42
2018-09-21T04:40:52.982Z,99389.69
2018-09-21T04:41:28.324Z,99393.49
2018-09-21T04:42:03.506Z,99394.46
2018-09-21T04:42:38.696Z,99394.59
2018-09-21T04:43:13.877Z,99394.91
2018-09-21T04:43:49.628Z,99396.28
2018-09-21T04:44:24.934Z,99393.03
2018-09-21T04:45:00.132Z,99389.23
2018-09-21T04:45:35.324Z,99386.73
2018-09-21T04:46:10.519Z,99393.14
2018-09-21T04:46:45.760Z,99388.61
2018-09-21T04:47:20.981Z,99388.05
2018-09-21T04:47:56.243Z,99392.90
2018-09-21T04:48:31.485Z,99388.51
2018-09-21T04:49:07.011Z,99385.60
2018-09-21T04:49:42.794Z,99388.27
2018-09-21T04:50:18.160Z,99393.42
2018-09-21T04:50:53.566Z,99382.72
2018-09-21T04:51:28.777Z,99388.09
2018-09-21T04:52:03.978Z,99382.90
2018-09-21T04:52:39.702Z,99384.77
2018-09-21T04:53:14.906Z,99386.91
2018-09-21T04:53:50.165Z,99392.66
2018-09-21T04:54:25.499Z,99385.64
2018-09-21T04:55:00.694Z,99389.59
2018-09-21T04:55:35.858Z,99375.56
2018-09-21T04:56:11.028Z,99374.39
2018-09-21T04:56:46.257Z,99371.27
2018-09-21T04:57:21.768Z,99372.94
2018-09-21T04:57:57.071Z,99376.30
2018-09-21T04:58:32.248Z,99374.01
2018-09-21T04:59:07.505Z,99376.78
2018-09-21T04:59:42.658Z,99374.22
2018-09-21T05:00:17.973Z,99374.45
2018-09-21T05:00:53.184Z,99371.83
2018-09-21T05:01:28.394Z,99381.17
2018-09-21T05:02:03.604Z,99376.05
2018-09-21T05:02:38.770Z,99382.83
2018-09-21T05:03:13.954Z,99380.80
2018-09-21T05:03:49.395Z,99374.88
2018-09-21T05:04:24.708Z,99375.87
2018-09-21T05:04:59.999Z,99377.27
2018-09-21T05:05:35.231Z,99383.66
2018-09-21T05:06:10.446Z,99384.29
2018-09-21T05:06:45.704Z,99372.59
2018-09-21T05:07:20.958Z,99383.80
2018-09-21T05:07:56.271Z,99378.41
2018-09-21T05:08:31.494Z,99384.02
2018-09-21T05:09:09.067Z,99381.14
2018-09-21T05:09:44.288Z,99383.80
2018-09-21T05:10:19.738Z,99387.27
2018-09-21T05:10:54.971Z,99382.48
2018-09-21T05:11:30.243Z,99375.22
2018-09-21T05:12:05.450Z,99381.63
2018-09-21T05:12:40.828Z,99388.38
2018-09-21T05:13:16.030Z,99382.52
2018-09-21T05:13:51.334Z,99374.80
2018-09-21T05:14:26.790Z,99382.25
2018-09-21T05:15:02.064Z,99379.23
2018-09-21T05:15:37.231Z,99383.84
2018-09-21T05:16:12.434Z,99376.64
2018-09-21T05:16:47.696Z,99378.44
2018-09-21T05:17:23.199Z,99382.59
2018-09-21T05:17:58.476Z,99385.57
2018-09-21T05:18:33.642Z,99381.63
2018-09-21T05:19:08.842Z,99378.68
2018-09-21T05:19:44.045Z,99379.23
2018-09-21T05:20:19.928Z,99383.18
2018-09-21T05:20:55.142Z,99389.03
2018-09-21T05:21:30.460Z,99384.49
2018-09-21T05:22:06.288Z,99374.83
2018-09-21T05:22:41.510Z,99382.20
2018-09-21T05:23:17.187Z,99377.36
2018-09-21T05:23:52.444Z,99378.98
2018-09-21T05:24:27.756Z,99383.91
2018-09-21T05:25:02.952Z,99384.88
2018-09-21T05:25:38.150Z,99385.26
2018-09-21T05:26:13.395Z,99386.78
2018-09-21T05:26:48.959Z,99386.78
2018-09-21T05:27:24.759Z,99372.06
2018-09-21T05:28:00.218Z,99380.31
2018-09-21T05:28:35.426Z,99382.80
2018-09-21T05:29:10.654Z,99381.66
2018-09-21T05:29:46.030Z,99392.19
2018-09-21T05:30:21.315Z,99380.20
2018-09-21T05:30:56.632Z,99384.01
2018-09-21T05:31:31.832Z,99382.14
2018-09-21T05:32:07.646Z,99387.89
2018-09-21T05:32:42.868Z,99385.09
2018-09-21T05:33:18.291Z,99385.22
2018-09-21T05:33:53.651Z,99374.59
2018-09-21T05:34:29.197Z,99378.05
2018-09-21T05:35:04.759Z,99377.22
2018-09-21T05:35:40.076Z,99372.79
2018-09-21T05:36:15.462Z,99370.02
2018-09-21T05:36:51.061Z,99361.98
2018-09-21T05:37:26.383Z,99363.92
2018-09-21T05:38:01.609Z,99366.41
2018-09-21T05:38:36.850Z,99366.31
2018-09-21T05:39:13.886Z,99356.62
2018-09-21T05:39:49.151Z,99374.35
2018-09-21T05:40:24.558Z,99367.84
2018-09-21T05:40:59.844Z,99369.64
2018-09-21T05:41:35.086Z,99370.13
2018-09-21T05:42:10.295Z,99357.62
2018-09-21T05:42:45.733Z,99359.59
2018-09-21T05:43:20.958Z,99364.12
2018-09-21T05:43:56.309Z,99357.06
2018-09-21T05:44:31.513Z,99363.53
2018-09-21T05:45:07.148Z,99366.93
2018-09-21T05:45:42.370Z,99359.70
2018-09-21T05:46:17.676Z,99363.67
2018-09-21T05:46:53.136Z,99361.11
2018-09-21T05:47:28.341Z,99367.48
2018-09-21T05:48:03.644Z,99357.09
2018-09-21T05:48:39.038Z,99360.62
2018-09-21T05:49:14.255Z,99365.82
2018-09-21T05:49:50.152Z,99365.88
2018-09-21T05:50:25.392Z,99356.67
2018-09-21T05:51:00.700Z,99354.52
2018-09-21T05:51:35.920Z,99362.59
2018-09-21T05:52:11.638Z,99360.07
2018-09-21T05:52:46.999Z,99365.05
2018-09-21T05:53:22.567Z,99362.73
2018-09-21T05:53:58.136Z,99364.25
2018-09-21T05:54:33.328Z,99361.85
2018-09-21T05:55:09.462Z,99366.69
2018-09-21T05:55:44.701Z,99366.98
2018-09-21T05:56:20.044Z,99357.91
2018-09-21T05:56:55.475Z,99354.19
2018-09-21T05:57:30.655Z,99372.09
2018-09-21T05:58:06.628Z,99364.41
2018-09-21T05:58:41.787Z,99361.59
2018-09-21T05:59:17.462Z,99354.87
2018-09-21T05:59:52.993Z,99356.39
2018-09-21T06:00:28.318Z,99365.01
2018-09-21T06:01:03.502Z,99362.20
2018-09-21T06:01:38.721Z,99355.05
2018-09-21T06:02:14.450Z,99352.41
2018-09-21T06:02:50.288Z,99352.09
2018-09-21T06:03:25.810Z,99351.31
2018-09-21T06:04:01.030Z,99352.92
2018-09-21T06:04:36.219Z,99346.14
2018-09-21T06:05:11.839Z,99348.05
2018-09-21T06:05:47.088Z,99348.05
2018-09-21T06:06:22.706Z,99349.88
2018-09-21T06:06:57.924Z,99346.91
2018-09-21T06:07:33.648Z,99352.31
2018-09-21T06:08:08.936Z,99349.05
2018-09-21T06:08:44.239Z,99351.54
2018-09-21T06:09:19.678Z,99367.05
2018-09-21T06:09:55.259Z,99353.91
2018-09-21T06:10:30.434Z,99349.61
2018-09-21T06:11:05.867Z,99356.61
2018-09-21T06:11:41.496Z,99352.66
2018-09-21T06:12:16.759Z,99351.48
2018-09-21T06:12:52.278Z,99358.95
2018-09-21T06:13:27.519Z,99353.85
2018-09-21T06:14:03.086Z,99351.07
2018-09-21T06:14:38.418Z,99340.61
2018-09-21T06:15:13.655Z,99349.97
2018-09-21T06:15:48.983Z,99346.91
2018-09-21T06:16:24.460Z,99353.16
2018-09-21T06:16:59.678Z,99355.16
2018-09-21T06:17:34.924Z,99348.71
2018-09-21T06:18:10.321Z,99353.03
2018-09-21T06:18:45.758Z,99363.75
2018-09-21T06:19:21.311Z,99329.52
2018-09-21T06:19:56.665Z,99359.80
2018-09-21T06:20:32.007Z,99350.78
2018-09-21T06:21:07.683Z,99350.29
2018-09-21T06:21:42.991Z,99350.23
2018-09-21T06:22:18.421Z,99348.98
2018-09-21T06:22:53.947Z,99355.09
2018-09-21T06:23:29.358Z,99353.17
2018-09-21T06:24:05.236Z,99360.16
2018-09-21T06:24:40.459Z,99344.29
2018-09-21T06:25:15.748Z,99349.41
2018-09-21T06:25:51.049Z,99351.47
2018-09-21T06:26:26.322Z,99339.00
2018-09-21T06:27:01.506Z,99351.62
2018-09-21T06:27:36.683Z,99358.29
2018-09-21T06:28:11.854Z,99346.98
2018-09-21T06:28:47.134Z,99351.13
2018-09-21T06:29:22.541Z,99343.06
2018-09-21T06:29:57.879Z,99339.27
2018-09-21T06:30:33.050Z,99350.31
2018-09-21T06:31:08.266Z,99346.05
2018-09-21T06:31:43.722Z,99349.67
2018-09-21T06:32:19.019Z,99339.76
2018-09-21T06:32:54.694Z,99346.88
2018-09-21T06:33:30.015Z,99343.27
2018-09-21T06:34:05.191Z,99345.23
2018-09-21T06:34:40.534Z,99342.89
2018-09-21T06:35:15.771Z,99345.91
2018-09-21T06:35:51.205Z,99350.36
2018-09-21T06:36:26.759Z,99347.42
2018-09-21T06:37:01.953Z,99352.20
2018-09-21T06:37:37.117Z,99353.86
2018-09-21T06:38:12.307Z,99346.59
2018-09-21T06:38:47.748Z,99346.74
2018-09-21T06:39:23.142Z,99363.55
2018-09-21T06:39:59.298Z,99350.84
2018-09-21T06:40:34.531Z,99342.78
2018-09-21T06:41:09.795Z,99354.00
2018-09-21T06:41:45.192Z,99352.51
2018-09-21T06:42:20.478Z,99352.17
2018-09-21T06:42:55.839Z,99347.27
2018-09-21T06:43:31.115Z,99348.79
2018-09-21T06:44:07.011Z,99348.94
2018-09-21T06:44:42.591Z,99345.17
2018-09-21T06:45:18.725Z,99346.16
2018-09-21T06:45:54.362Z,99340.72
2018-09-21T06:46:29.563Z,99334.28
2018-09-21T06:47:05.118Z,99333.64
2018-09-21T06:47:40.317Z,99340.77
2018-09-21T06:48:15.577Z,99332.84
2018-09-21T06:48:51.232Z,99337.30
2018-09-21T06:49:27.007Z,99339.30
2018-09-21T06:50:02.412Z,99335.60
2018-09-21T06:50:37.612Z,99329.49
2018-09-21T06:51:13.195Z,99327.20
2018-09-21T06:51:48.465Z,99323.73
2018-09-21T06:52:23.780Z,99329.50
2018-09-21T06:52:59.001Z,99325.73
2018-09-21T06:53:33.681Z,99322.56
2018-09-21T06:54:08.402Z,99322.41
2018-09-21T06:54:43.685Z,99332.66